Main page
METAR-TAF:

METAR-TAF

Airports :

Naval Air Station Joint Reserve Base Fort Worth

Fort Worth, Texas, United States

latitude: 32-45-57N, longitude: 097-26-00W, elevation: 649 ft

Current weather observation

The report was made 1 hour and 8 minutes ago, at 16:52 UTC
Wind 10 mph from the South
Temperature 88°F
Humidity 52%
Pressure 29.93 in. Hg
Visibility: 10 miles
Scattered clouds at a height of 4500 ft
Scattered clouds at a height of 25000 ft

METAR: KNFW 151652Z 18009KT 10SM SCT045 SCT250 31/20 A2993 RMK AO2 SLP119 T03110200 $

Time: 13:00 (18:00 UTC)

Forecast

Forecast valid from 15 at 15 UTC to 16 at 15 UTC
Wind 9 mph from the South
Visibility 6.2 miles or more
Few clouds at a height of 25000 ft
From 16 at 0900 UTC
Wind 8 mph from the South
Visibility: 5285 ft
Scattered clouds at a height of 1200 ft

TAF: KNFW 1515/1615 17008KT 9999 FEW250 QNH2976INS FM160900 18007KT 9999 SCT012 QNH2986INS AUTOMATED SENSOR METWATCH 1522 TIL 1611 TX35/1522Z TN24/1612Z FN20048

Weather observations and forecasts of more than 4000 airports (METAR and TAF reports).

The available stations are represented by yellow and red dots on the map.

Hover mouse over dot to see the name of the station.

Then click to see weather observations and forecasts.

To change the map : click on the green buttons with a black cross to zoom in, on the green button with a dash to zoom out, or on the green arrows for adjacent maps.


METAR-TAF: